Station: Girilambone  

  Atmospheric Gas Attenuation - ITU Rec 676-11   ----------------- dB/100km -----------------
Date Time Temp RH % AH g/m3 Dew Point Wind Direction Speed kph Gust kph Barometer mB Rainfall Since 9am 24GHz 47GHz 76GHz 122GHz 134GHz 241GHz
08/05 12:30 16.9 50 7.19 6.4 1013.1 0 16.5 22.9 33.0 86.3 77.2 264.5
08/05 12:20 17.1 49 7.13 6.3 1013.1 0 16.3 22.7 32.7 85.5 76.3 261.3
08/05 12:10 16.5 49 6.88 5.7 1013.1 0 15.8 22.5 32.0 83.7 73.8 252.7
08/05 12:00 15.8 50 6.73 5.4 1013.1 0 15.5 22.5 31.8 83.0 72.7 248.6
08/05 11:50 16.1 50 6.85 5.9 1013.1 0 15.8 22.6 32.1 83.9 73.8 252.7
08/05 11:40 15.5 51 6.74 5.4 1013.1 0 15.6 22.6 31.9 83.4 73.1 250.0
08/05 11:30 15.4 51 6.7 5.3 1013.1 0 15.5 22.5 31.8 83.1 72.7 248.6
08/05 11:20 15.1 51 6.58 5 1013.1 0 15.2 22.4 31.5 82.3 71.5 244.4
08/05 11:10 15.1 52 6.71 5.3 1013.1 0 15.5 22.6 32.0 83.5 73.1 249.9
08/05 11:00 14.6 52 6.51 4.9 1013.1 0 15.1 22.4 31.4 82.1 71.1 243.0
08/05 10:50 14.8 53 6.71 5.3 1013.1 0 15.5 22.7 32.1 83.8 73.4 250.9
08/05 10:40 14.6 53 6.63 5.1 1013.1 0 15.4 22.6 31.9 83.3 72.6 248.1
08/05 10:30 14.3 54 6.63 5.1 1013.1 0 15.4 22.7 32.0 83.6 72.8 249.0
08/05 10:20 13.9 55 6.59 5 1013.1 0 15.3 22.7 32.0 83.6 72.7 248.5
08/05 10:10 13.8 55 6.55 4.9 1013.1 0 15.2 22.7 31.9 83.3 72.3 247.1
08/05 10:00 13.5 56 6.55 4.9 1013.1 0 15.2 22.8 32.0 83.6 72.6 248.1
08/05 09:50 13.2 56 6.43 4.6 1013.1 0 15.0 22.7 31.7 82.7 71.4 243.8
08/05 09:40 12.9 57 6.42 4.6 1013.1 0 15.0 22.7 31.8 83.0 71.6 244.3
08/05 09:30 12.4 56 6.12 3.9 1013.1 0 14.4 22.4 30.8 80.5 68.3 232.9
08/05 09:20 12.2 57 6.15 3.9 1013.1 0 14.4 22.5 31.0 81.0 68.9 234.8
08/05 09:10 11.8 58 6.11 3.8 1013.1 0 14.4 22.5 31.0 81.0 68.7 234.2
08/05 09:00 11.7 57 5.96 3.5 1013.1 0 14.0 22.3 30.5 79.6 67.0 228.0
08/05 08:50 11.4 57 5.85 3.2 1013.1 0 13.8 22.2 30.2 78.8 65.9 224.1
08/05 08:40 10.8 57 5.64 2.6 1013.1 0 13.4 22.1 29.6 77.3 63.8 216.7
08/05 08:30 10.7 58 5.7 2.8 1013.1 0 13.5 22.2 29.9 78.0 64.6 219.6
08/05 08:20 10.1 59 5.58 2.4 1013.1 0 13.3 22.1 29.7 77.4 63.6 216.0
08/05 08:10 9.7 60 5.53 2.3 1013.1 0 13.2 22.2 29.6 77.3 63.3 214.9
08/05 08:00 9.3 61 5.48 2.2 1013.1 0 13.1 22.2 29.6 77.2 63.0 213.8
08/05 07:50 8.8 62 5.4 1.9 1013.1 0 13.0 22.2 29.5 76.8 62.4 211.7
08/05 07:40 8.4 62 5.26 1.7 1013.1 0 12.7 22.1 29.1 75.8 61.0 206.6
08/05 07:30 8 64 5.29 1.6 1013.1 0 12.7 22.2 29.4 76.5 61.7 208.9
08/05 07:20 7.7 66 5.35 1.7 1013.1 0 12.9 22.4 29.7 77.4 62.7 212.4
08/05 07:10 7.4 66 5.25 1.4 1013.1 0 12.7 22.3 29.4 76.7 61.6 208.7
08/05 07:00 7.1 67 5.23 1.4 1013.1 0 12.7 22.3 29.5 76.7 61.6 208.6
08/05 06:50 7.2 67 5.26 1.5 1013.1 0 12.7 22.4 29.5 77.0 61.9 209.7
08/05 06:40 7.4 65 5.17 1.2 1013.1 0 12.5 22.2 29.1 75.8 60.6 205.2
08/05 06:30 7.5 65 5.21 1.4 1013.1 0 12.6 22.2 29.2 76.2 61.1 206.7
08/05 06:20 7.5 65 5.21 1.3 1013.1 0 12.6 22.2 29.2 76.2 61.1 206.7
08/05 06:10 7.4 66 5.25 1.4 1013.1 0 12.7 22.3 29.4 76.7 61.6 208.7
08/05 06:00 7.6 65 5.24 1.5 1013.1 0 12.7 22.2 29.3 76.4 61.4 207.8
08/05 05:50 7.1 66 5.15 1.2 1013.1 0 12.5 22.2 29.1 75.9 60.6 205.1
08/05 05:40 6.9 66 5.08 1 1013.1 0 12.3 22.2 29.0 75.4 59.9 202.5
08/05 05:30 7.1 65 5.07 1 1013.1 0 12.3 22.1 28.8 75.1 59.6 201.6
08/05 05:20 7.3 65 5.14 1.1 1013.1 0 12.5 22.2 29.0 75.6 60.3 204.1
08/05 05:10 7 66 5.12 1.1 1013.1 0 12.4 22.2 29.1 75.7 60.3 204.0
08/05 05:00 6.9 66 5.08 1 1013.1 0 12.3 22.2 29.0 75.4 59.9 202.5
08/05 04:50 7.1 64 4.99 0.9 1013.1 0 12.1 22.0 28.5 74.3 58.6 198.0
08/05 04:40 6.8 65 4.97 0.7 1013.1 0 12.1 22.0 28.6 74.4 58.6 197.9
08/05 04:30 6.9 65 5.01 0.8 1013.1 0 12.2 22.1 28.7 74.7 59.0 199.4
08/05 04:20 7 64 4.96 0.8 1013.1 0 12.1 22.0 28.5 74.1 58.3 197.0
08/05 04:10 7 64 4.96 0.6 1013.1 0 12.1 22.0 28.5 74.1 58.3 197.0
08/05 04:00 7 64 4.96 0.7 1013.1 0 12.1 22.0 28.5 74.1 58.3 197.0
08/05 03:50 7.1 63 4.92 0.5 1013.1 0 12.0 21.9 28.3 73.6 57.7 195.0
08/05 03:40 7.1 63 4.92 0.5 1013.1 0 12.0 21.9 28.3 73.6 57.7 195.0
08/05 03:30 7 63 4.88 0.5 1013.1 0 11.9 21.8 28.2 73.3 57.3 193.5
08/05 03:20 7.1 62 4.84 0.3 1013.1 0 11.8 21.8 28.0 72.8 56.7 191.5
08/05 03:10 7.3 61 4.82 0.3 1013.1 0 11.8 21.7 27.8 72.4 56.3 190.1
08/05 03:00 7.1 62 4.84 0.3 1013.1 0 11.8 21.8 28.0 72.8 56.7 191.5
08/05 02:50 7.1 61 4.76 0.1 1013.1 0 11.6 21.6 27.7 72.0 55.7 188.0
08/05 02:40 7.1 61 4.76 0.1 1013.1 0 11.6 21.6 27.7 72.0 55.7 188.0
08/05 02:30 7.3 61 4.82 0.3 1013.1 0 11.8 21.7 27.8 72.4 56.3 190.1
08/05 02:20 7.2 60 4.71 -0.1 1013.1 0 11.5 21.5 27.5 71.4 55.0 185.6
08/05 02:10 7.5 59 4.72 0 1013.1 0 11.5 21.5 27.4 71.2 55.0 185.3
08/05 02:00 7.2 60 4.71 0 1013.1 0 11.5 21.5 27.5 71.4 55.0 185.6
08/05 01:50 7.4 60 4.77 0.1 1013.1 0 11.7 21.6 27.6 71.8 55.6 187.7
08/05 01:40 7.4 59 4.69 -0.1 1013.1 0 11.5 21.5 27.3 71.0 54.7 184.2
08/05 01:30 7.7 58 4.71 0 1013.1 0 11.5 21.4 27.3 71.0 54.7 184.4
08/05 01:20 7.6 58 4.67 -0.2 1013.1 0 11.4 21.4 27.2 70.6 54.3 182.9
08/05 01:10 7.8 57 4.65 -0.2 1013.1 0 11.4 21.3 27.0 70.3 53.9 181.6
08/05 01:00 7.8 57 4.65 -0.2 1013.1 0 11.4 21.3 27.0 70.3 53.9 181.6
08/05 00:50 7.9 56 4.6 -0.4 1013.1 0 11.3 21.2 26.8 69.7 53.2 179.2
08/05 00:40 8.2 54 4.52 -0.6 1013.1 0 11.1 21.0 26.4 68.6 52.0 175.2
08/05 00:20 8.3 53 4.47 -0.7 1013.1 0 11.0 20.9 26.2 68.1 51.4 172.8
08/05 00:10 8.4 53 4.5 -0.6 1013.1 0 11.0 20.9 26.3 68.3 51.7 173.9
08/05 00:00 8.4 53 4.5 -0.6 1013.1 0 11.0 20.9 26.3 68.3 51.7 173.9
07/05 23:50 8.5 52 4.44 -0.8 1013.1 0 10.9 20.8 26.0 67.6 50.9 171.1
07/05 23:40 8.7 51 4.41 -0.9 1013.1 0 10.8 20.7 25.9 67.2 50.4 169.5
07/05 23:30 8.3 53 4.47 -0.7 1013.1 0 11.0 20.9 26.2 68.1 51.4 172.8
07/05 23:20 8.1 54 4.5 -0.7 1013.1 0 11.1 21.0 26.4 68.5 51.9 174.5
07/05 23:10 8.3 53 4.47 -0.7 1013.1 0 11.0 20.9 26.2 68.1 51.4 172.8
07/05 23:00 8.2 53 4.44 -0.8 1013.1 0 10.9 20.9 26.1 67.9 51.1 171.8
07/05 22:50 8.1 53 4.41 -0.9 1013.1 0 10.9 20.9 26.1 67.7 50.8 170.7
07/05 22:40 8.2 53 4.44 -0.8 1013.1 0 10.9 20.9 26.1 67.9 51.1 171.8
07/05 22:30 8 53 4.38 -1 1013.1 0 10.8 20.9 26.0 67.4 50.5 169.7
07/05 22:20 8.2 52 4.36 -1.1 1013.1 0 10.8 20.8 25.8 67.1 50.1 168.4
07/05 22:10 8.1 52 4.33 -1.2 1013.1 0 10.7 20.8 25.8 66.9 49.8 167.3
07/05 22:00 7.7 53 4.3 -1.3 1013.1 0 10.6 20.8 25.8 66.9 49.7 166.9
07/05 21:50 7.7 53 4.3 -1.3 1013.1 0 10.6 20.8 25.8 66.9 49.7 166.9
07/05 21:40 7.9 52 4.27 -1.4 1013.1 0 10.6 20.7 25.6 66.5 49.2 165.2
07/05 21:30 7.5 53 4.24 -1.4 1013.1 0 10.5 20.8 25.6 66.5 49.1 164.8
07/05 21:20 7.5 55 4.4 -1 1013.1 0 10.9 21.0 26.2 68.1 51.1 171.6
07/05 21:10 7.6 52 4.19 -1.7 1013.1 0 10.4 20.7 25.4 65.9 48.5 162.5
07/05 21:00 7.9 49 4.03 -2.1 1013.1 0 10.1 20.4 24.7 64.2 46.4 155.2
07/05 20:50 9.5 44 4.01 -2.2 1013.1 0 10.0 20.0 24.2 62.7 45.2 151.3
07/05 20:40 10.5 41 3.98 -2.2 1013.1 0 9.9 19.7 23.8 61.7 44.3 148.3
07/05 20:30 11 38 3.8 -2.8 1013.1 0 9.5 19.4 23.0 59.6 42.0 140.2
07/05 20:20 10.9 38 3.78 -2.9 1013.1 0 9.4 19.4 23.0 59.5 41.8 139.6
07/05 20:10 11.1 38 3.83 -2.7 1013.1 0 9.5 19.4 23.1 59.8 42.3 141.2
07/05 20:00 11.3 37 3.77 -2.8 1013.1 0 9.4 19.3 22.9 59.1 41.5 138.5
07/05 19:50 11.5 36 3.72 -3.1 1013.1 0 9.3 19.2 22.6 58.5 40.9 136.2

Last Refresh: 08-May-2026 12:10:14

Bureau of Meteorology